sensor_id;sensor_type;location;lat;lon;timestamp;temperature;humidity
31677;DHT22;18385;51.572;6.578;2023-02-14T00:02:10;8.90;66.30
31677;DHT22;18385;51.572;6.578;2023-02-14T00:04:36;8.90;66.30
31677;DHT22;18385;51.572;6.578;2023-02-14T00:07:06;8.90;66.40
31677;DHT22;18385;51.572;6.578;2023-02-14T00:09:32;8.80;66.30
31677;DHT22;18385;51.572;6.578;2023-02-14T00:11:57;8.90;66.40
31677;DHT22;18385;51.572;6.578;2023-02-14T00:14:23;8.90;66.40
31677;DHT22;18385;51.572;6.578;2023-02-14T00:17:07;9.00;66.40
31677;DHT22;18385;51.572;6.578;2023-02-14T00:19:33;9.00;66.30
31677;DHT22;18385;51.572;6.578;2023-02-14T00:22:01;9.00;66.20
31677;DHT22;18385;51.572;6.578;2023-02-14T00:24:27;9.10;66.30
31677;DHT22;18385;51.572;6.578;2023-02-14T00:26:53;9.10;66.10
31677;DHT22;18385;51.572;6.578;2023-02-14T00:29:22;9.10;66.10
31677;DHT22;18385;51.572;6.578;2023-02-14T00:31:49;9.10;66.10
31677;DHT22;18385;51.572;6.578;2023-02-14T00:34:16;9.10;66.10
31677;DHT22;18385;51.572;6.578;2023-02-14T00:36:43;9.20;66.10
31677;DHT22;18385;51.572;6.578;2023-02-14T00:39:11;9.20;65.90
31677;DHT22;18385;51.572;6.578;2023-02-14T00:41:37;9.10;65.90
31677;DHT22;18385;51.572;6.578;2023-02-14T00:44:03;9.00;65.90
31677;DHT22;18385;51.572;6.578;2023-02-14T00:46:29;9.00;66.00
31677;DHT22;18385;51.572;6.578;2023-02-14T00:48:55;8.90;66.10
31677;DHT22;18385;51.572;6.578;2023-02-14T00:51:21;8.90;66.20
31677;DHT22;18385;51.572;6.578;2023-02-14T00:53:49;8.90;66.30
31677;DHT22;18385;51.572;6.578;2023-02-14T00:56:16;8.90;66.50
31677;DHT22;18385;51.572;6.578;2023-02-14T00:58:43;9.00;66.60
31677;DHT22;18385;51.572;6.578;2023-02-14T01:01:09;9.00;66.50
31677;DHT22;18385;51.572;6.578;2023-02-14T01:03:35;9.10;66.50
31677;DHT22;18385;51.572;6.578;2023-02-14T01:06:01;9.10;66.40
31677;DHT22;18385;51.572;6.578;2023-02-14T01:08:28;9.20;66.30
31677;DHT22;18385;51.572;6.578;2023-02-14T01:10:54;9.20;66.20
31677;DHT22;18385;51.572;6.578;2023-02-14T01:13:20;9.20;66.10
31677;DHT22;18385;51.572;6.578;2023-02-14T01:15:48;9.20;66.10
31677;DHT22;18385;51.572;6.578;2023-02-14T01:18:15;9.20;66.20
31677;DHT22;18385;51.572;6.578;2023-02-14T01:20:41;9.20;66.20
31677;DHT22;18385;51.572;6.578;2023-02-14T01:23:07;9.20;66.20
31677;DHT22;18385;51.572;6.578;2023-02-14T01:25:35;9.20;66.20
31677;DHT22;18385;51.572;6.578;2023-02-14T01:28:01;9.10;66.20
31677;DHT22;18385;51.572;6.578;2023-02-14T01:30:26;9.10;66.20
31677;DHT22;18385;51.572;6.578;2023-02-14T01:32:52;9.10;66.30
31677;DHT22;18385;51.572;6.578;2023-02-14T01:35:19;9.10;66.30
31677;DHT22;18385;51.572;6.578;2023-02-14T01:37:45;9.10;66.40
31677;DHT22;18385;51.572;6.578;2023-02-14T01:40:11;9.00;66.30
31677;DHT22;18385;51.572;6.578;2023-02-14T01:42:37;9.00;66.30
31677;DHT22;18385;51.572;6.578;2023-02-14T01:45:18;8.90;66.30
31677;DHT22;18385;51.572;6.578;2023-02-14T01:47:50;8.90;66.30
31677;DHT22;18385;51.572;6.578;2023-02-14T01:50:29;8.80;66.30
31677;DHT22;18385;51.572;6.578;2023-02-14T01:53:03;8.80;66.50
31677;DHT22;18385;51.572;6.578;2023-02-14T01:55:32;8.70;66.50
31677;DHT22;18385;51.572;6.578;2023-02-14T01:58:02;8.70;66.70
31677;DHT22;18385;51.572;6.578;2023-02-14T02:00:29;8.60;66.60
31677;DHT22;18385;51.572;6.578;2023-02-14T02:03:15;8.60;66.70
31677;DHT22;18385;51.572;6.578;2023-02-14T02:05:46;8.60;66.70
31677;DHT22;18385;51.572;6.578;2023-02-14T02:08:13;8.60;66.70
31677;DHT22;18385;51.572;6.578;2023-02-14T02:10:39;8.60;66.60
31677;DHT22;18385;51.572;6.578;2023-02-14T02:13:06;8.60;66.60
31677;DHT22;18385;51.572;6.578;2023-02-14T02:15:41;8.70;66.80
31677;DHT22;18385;51.572;6.578;2023-02-14T02:18:31;8.60;66.70
31677;DHT22;18385;51.572;6.578;2023-02-14T02:24:19;8.50;66.60
31677;DHT22;18385;51.572;6.578;2023-02-14T02:30:16;8.50;66.90
31677;DHT22;18385;51.572;6.578;2023-02-14T02:38:54;8.30;66.90
31677;DHT22;18385;51.572;6.578;2023-02-14T02:44:14;8.20;66.90
31677;DHT22;18385;51.572;6.578;2023-02-14T02:50:07;8.20;67.00
31677;DHT22;18385;51.572;6.578;2023-02-14T02:56:00;8.10;67.10
31677;DHT22;18385;51.572;6.578;2023-02-14T02:58:56;8.10;67.10
31677;DHT22;18385;51.572;6.578;2023-02-14T03:01:28;8.00;67.10
31677;DHT22;18385;51.572;6.578;2023-02-14T03:03:59;8.00;67.30
31677;DHT22;18385;51.572;6.578;2023-02-14T03:06:46;8.10;67.30
31677;DHT22;18385;51.572;6.578;2023-02-14T03:12:18;8.10;67.20
31677;DHT22;18385;51.572;6.578;2023-02-14T03:20:48;8.10;67.30
31677;DHT22;18385;51.572;6.578;2023-02-14T03:23:20;8.10;67.30
31677;DHT22;18385;51.572;6.578;2023-02-14T03:26:13;8.10;67.40
31677;DHT22;18385;51.572;6.578;2023-02-14T03:34:45;8.10;67.30
31677;DHT22;18385;51.572;6.578;2023-02-14T03:37:25;8.00;67.20
31677;DHT22;18385;51.572;6.578;2023-02-14T03:40:05;8.00;67.30
31677;DHT22;18385;51.572;6.578;2023-02-14T03:43:10;7.90;67.40
31677;DHT22;18385;51.572;6.578;2023-02-14T03:45:36;7.90;67.50
31677;DHT22;18385;51.572;6.578;2023-02-14T03:48:07;7.90;67.50
31677;DHT22;18385;51.572;6.578;2023-02-14T03:50:35;7.90;67.50
31677;DHT22;18385;51.572;6.578;2023-02-14T03:53:03;7.90;67.40
31677;DHT22;18385;51.572;6.578;2023-02-14T03:55:39;7.90;67.50
31677;DHT22;18385;51.572;6.578;2023-02-14T03:58:20;7.90;67.50
31677;DHT22;18385;51.572;6.578;2023-02-14T04:00:47;7.90;67.50
31677;DHT22;18385;51.572;6.578;2023-02-14T04:03:16;7.90;67.50
31677;DHT22;18385;51.572;6.578;2023-02-14T04:05:44;7.90;67.50
31677;DHT22;18385;51.572;6.578;2023-02-14T04:08:21;7.90;67.70
31677;DHT22;18385;51.572;6.578;2023-02-14T04:10:49;7.90;67.70
31677;DHT22;18385;51.572;6.578;2023-02-14T04:13:15;7.90;67.60
31677;DHT22;18385;51.572;6.578;2023-02-14T04:15:40;7.90;67.60
31677;DHT22;18385;51.572;6.578;2023-02-14T04:18:06;7.90;67.60
31677;DHT22;18385;51.572;6.578;2023-02-14T04:20:50;7.90;67.60
31677;DHT22;18385;51.572;6.578;2023-02-14T04:23:15;7.90;67.60
31677;DHT22;18385;51.572;6.578;2023-02-14T04:25:41;7.90;67.50
31677;DHT22;18385;51.572;6.578;2023-02-14T04:28:08;7.80;67.40
31677;DHT22;18385;51.572;6.578;2023-02-14T04:30:33;7.80;67.60
31677;DHT22;18385;51.572;6.578;2023-02-14T04:32:59;7.80;67.60
31677;DHT22;18385;51.572;6.578;2023-02-14T04:35:25;7.80;67.60
31677;DHT22;18385;51.572;6.578;2023-02-14T04:37:50;7.70;67.60
31677;DHT22;18385;51.572;6.578;2023-02-14T04:40:16;7.70;67.70
31677;DHT22;18385;51.572;6.578;2023-02-14T04:42:43;7.60;67.70
31677;DHT22;18385;51.572;6.578;2023-02-14T04:45:09;7.60;67.80
31677;DHT22;18385;51.572;6.578;2023-02-14T04:47:34;7.60;67.80
31677;DHT22;18385;51.572;6.578;2023-02-14T04:50:00;7.60;67.90
31677;DHT22;18385;51.572;6.578;2023-02-14T04:52:26;7.60;67.90
31677;DHT22;18385;51.572;6.578;2023-02-14T04:54:51;7.60;67.90
31677;DHT22;18385;51.572;6.578;2023-02-14T04:57:17;7.50;67.90
31677;DHT22;18385;51.572;6.578;2023-02-14T04:59:43;7.50;68.00
31677;DHT22;18385;51.572;6.578;2023-02-14T05:02:08;7.50;68.00
31677;DHT22;18385;51.572;6.578;2023-02-14T05:04:34;7.40;67.90
31677;DHT22;18385;51.572;6.578;2023-02-14T05:07:00;7.40;68.00
31677;DHT22;18385;51.572;6.578;2023-02-14T05:09:25;7.40;68.10
31677;DHT22;18385;51.572;6.578;2023-02-14T05:11:51;7.40;68.10
31677;DHT22;18385;51.572;6.578;2023-02-14T05:14:16;7.40;68.10
31677;DHT22;18385;51.572;6.578;2023-02-14T05:16:42;7.30;68.10
31677;DHT22;18385;51.572;6.578;2023-02-14T05:19:08;7.30;68.20
31677;DHT22;18385;51.572;6.578;2023-02-14T05:21:33;7.30;68.20
31677;DHT22;18385;51.572;6.578;2023-02-14T05:24:00;7.30;68.20
31677;DHT22;18385;51.572;6.578;2023-02-14T05:26:26;7.30;68.20
31677;DHT22;18385;51.572;6.578;2023-02-14T05:28:52;7.20;68.20
31677;DHT22;18385;51.572;6.578;2023-02-14T05:31:17;7.20;68.20
31677;DHT22;18385;51.572;6.578;2023-02-14T05:33:43;7.20;68.30
31677;DHT22;18385;51.572;6.578;2023-02-14T05:36:09;7.10;68.30
31677;DHT22;18385;51.572;6.578;2023-02-14T05:38:35;7.10;68.30
31677;DHT22;18385;51.572;6.578;2023-02-14T05:41:01;7.10;68.40
31677;DHT22;18385;51.572;6.578;2023-02-14T05:43:27;7.10;68.40
31677;DHT22;18385;51.572;6.578;2023-02-14T05:45:55;7.10;68.50
31677;DHT22;18385;51.572;6.578;2023-02-14T05:48:20;7.10;68.50
31677;DHT22;18385;51.572;6.578;2023-02-14T05:50:47;7.20;68.60
31677;DHT22;18385;51.572;6.578;2023-02-14T05:53:13;7.20;68.70
31677;DHT22;18385;51.572;6.578;2023-02-14T05:55:38;7.30;68.70
31677;DHT22;18385;51.572;6.578;2023-02-14T05:58:04;7.30;68.60
31677;DHT22;18385;51.572;6.578;2023-02-14T06:00:30;7.30;68.50
31677;DHT22;18385;51.572;6.578;2023-02-14T06:02:55;7.30;68.50
31677;DHT22;18385;51.572;6.578;2023-02-14T06:05:21;7.30;68.60
31677;DHT22;18385;51.572;6.578;2023-02-14T06:07:47;7.40;68.60
31677;DHT22;18385;51.572;6.578;2023-02-14T06:10:20;7.40;68.60
31677;DHT22;18385;51.572;6.578;2023-02-14T06:12:48;7.40;68.60
31677;DHT22;18385;51.572;6.578;2023-02-14T06:15:14;7.40;68.60
31677;DHT22;18385;51.572;6.578;2023-02-14T06:17:39;7.50;68.60
31677;DHT22;18385;51.572;6.578;2023-02-14T06:20:06;7.50;68.50
31677;DHT22;18385;51.572;6.578;2023-02-14T06:22:34;7.50;68.50
31677;DHT22;18385;51.572;6.578;2023-02-14T06:25:00;7.50;68.50
31677;DHT22;18385;51.572;6.578;2023-02-14T06:27:27;7.50;68.50
31677;DHT22;18385;51.572;6.578;2023-02-14T06:29:53;7.50;68.40
31677;DHT22;18385;51.572;6.578;2023-02-14T06:32:18;7.50;68.40
31677;DHT22;18385;51.572;6.578;2023-02-14T06:34:44;7.40;68.50
31677;DHT22;18385;51.572;6.578;2023-02-14T06:37:10;7.40;68.50
31677;DHT22;18385;51.572;6.578;2023-02-14T06:39:36;7.40;68.60
31677;DHT22;18385;51.572;6.578;2023-02-14T06:42:01;7.30;68.60
31677;DHT22;18385;51.572;6.578;2023-02-14T06:44:27;7.20;68.50
31677;DHT22;18385;51.572;6.578;2023-02-14T06:46:52;7.20;68.60
31677;DHT22;18385;51.572;6.578;2023-02-14T06:49:18;7.10;68.60
31677;DHT22;18385;51.572;6.578;2023-02-14T06:51:44;7.10;68.80
31677;DHT22;18385;51.572;6.578;2023-02-14T06:54:09;7.10;68.80
31677;DHT22;18385;51.572;6.578;2023-02-14T06:56:35;7.10;68.90
31677;DHT22;18385;51.572;6.578;2023-02-14T06:59:01;7.10;68.90
31677;DHT22;18385;51.572;6.578;2023-02-14T07:01:27;7.10;69.00
31677;DHT22;18385;51.572;6.578;2023-02-14T07:03:53;7.10;69.00
31677;DHT22;18385;51.572;6.578;2023-02-14T07:06:18;7.10;68.90
31677;DHT22;18385;51.572;6.578;2023-02-14T07:08:44;7.10;68.90
31677;DHT22;18385;51.572;6.578;2023-02-14T07:11:10;7.10;69.10
31677;DHT22;18385;51.572;6.578;2023-02-14T07:13:35;7.20;69.20
31677;DHT22;18385;51.572;6.578;2023-02-14T07:16:01;7.20;69.10
31677;DHT22;18385;51.572;6.578;2023-02-14T07:18:27;7.30;69.10
31677;DHT22;18385;51.572;6.578;2023-02-14T07:20:52;7.30;69.00
31677;DHT22;18385;51.572;6.578;2023-02-14T07:23:18;7.30;69.00
31677;DHT22;18385;51.572;6.578;2023-02-14T07:25:44;7.30;68.90
31677;DHT22;18385;51.572;6.578;2023-02-14T07:28:10;7.30;68.90
31677;DHT22;18385;51.572;6.578;2023-02-14T07:30:35;7.30;68.90
31677;DHT22;18385;51.572;6.578;2023-02-14T07:33:01;7.30;68.90
31677;DHT22;18385;51.572;6.578;2023-02-14T07:35:27;7.40;69.00
31677;DHT22;18385;51.572;6.578;2023-02-14T07:37:52;7.40;69.00
31677;DHT22;18385;51.572;6.578;2023-02-14T07:40:18;7.50;69.00
31677;DHT22;18385;51.572;6.578;2023-02-14T07:42:51;7.50;69.70
31677;DHT22;18385;51.572;6.578;2023-02-14T07:45:18;7.60;68.90
31677;DHT22;18385;51.572;6.578;2023-02-14T07:47:44;7.60;68.90
31677;DHT22;18385;51.572;6.578;2023-02-14T07:50:09;7.70;69.00
31677;DHT22;18385;51.572;6.578;2023-02-14T07:52:35;7.80;68.90
31677;DHT22;18385;51.572;6.578;2023-02-14T07:55:00;7.90;68.90
31677;DHT22;18385;51.572;6.578;2023-02-14T07:57:26;8.00;68.80
31677;DHT22;18385;51.572;6.578;2023-02-14T07:59:52;8.00;68.70
31677;DHT22;18385;51.572;6.578;2023-02-14T08:02:17;8.10;68.70
31677;DHT22;18385;51.572;6.578;2023-02-14T08:04:45;8.20;68.70
31677;DHT22;18385;51.572;6.578;2023-02-14T08:07:11;8.20;68.60
31677;DHT22;18385;51.572;6.578;2023-02-14T08:09:36;8.30;68.60
31677;DHT22;18385;51.572;6.578;2023-02-14T08:12:02;8.40;68.50
31677;DHT22;18385;51.572;6.578;2023-02-14T08:14:46;8.40;68.50
31677;DHT22;18385;51.572;6.578;2023-02-14T08:17:12;8.50;68.50
31677;DHT22;18385;51.572;6.578;2023-02-14T08:19:38;8.50;68.30
31677;DHT22;18385;51.572;6.578;2023-02-14T08:22:04;8.60;68.30
31677;DHT22;18385;51.572;6.578;2023-02-14T08:24:31;8.70;68.30
31677;DHT22;18385;51.572;6.578;2023-02-14T08:26:56;8.70;68.20
31677;DHT22;18385;51.572;6.578;2023-02-14T08:29:22;8.70;68.20
31677;DHT22;18385;51.572;6.578;2023-02-14T08:31:48;8.80;68.20
31677;DHT22;18385;51.572;6.578;2023-02-14T08:34:14;8.90;68.10
31677;DHT22;18385;51.572;6.578;2023-02-14T08:36:40;8.90;68.00
31677;DHT22;18385;51.572;6.578;2023-02-14T08:39:06;9.00;68.10
31677;DHT22;18385;51.572;6.578;2023-02-14T08:41:32;9.00;68.00
31677;DHT22;18385;51.572;6.578;2023-02-14T08:43:58;9.10;67.90
31677;DHT22;18385;51.572;6.578;2023-02-14T08:46:24;9.20;67.90
31677;DHT22;18385;51.572;6.578;2023-02-14T08:48:50;9.20;67.90
31677;DHT22;18385;51.572;6.578;2023-02-14T08:51:18;9.20;67.70
31677;DHT22;18385;51.572;6.578;2023-02-14T08:53:43;9.30;67.80
31677;DHT22;18385;51.572;6.578;2023-02-14T08:56:12;9.30;67.70
31677;DHT22;18385;51.572;6.578;2023-02-14T08:58:39;9.40;67.80
31677;DHT22;18385;51.572;6.578;2023-02-14T09:01:09;9.40;67.70
31677;DHT22;18385;51.572;6.578;2023-02-14T09:03:35;9.50;67.70
31677;DHT22;18385;51.572;6.578;2023-02-14T09:06:09;9.50;67.60
31677;DHT22;18385;51.572;6.578;2023-02-14T09:08:36;9.60;67.50
31677;DHT22;18385;51.572;6.578;2023-02-14T09:11:10;9.70;67.50
31677;DHT22;18385;51.572;6.578;2023-02-14T09:13:36;9.70;67.40
31677;DHT22;18385;51.572;6.578;2023-02-14T09:16:07;9.70;67.40
31677;DHT22;18385;51.572;6.578;2023-02-14T09:18:33;9.80;67.40
31677;DHT22;18385;51.572;6.578;2023-02-14T09:20:59;9.90;67.40
31677;DHT22;18385;51.572;6.578;2023-02-14T09:23:25;9.90;67.40
31677;DHT22;18385;51.572;6.578;2023-02-14T09:25:58;10.00;67.30
31677;DHT22;18385;51.572;6.578;2023-02-14T09:28:24;10.00;67.20
31677;DHT22;18385;51.572;6.578;2023-02-14T09:30:50;10.10;67.10
31677;DHT22;18385;51.572;6.578;2023-02-14T09:33:15;10.20;67.10
31677;DHT22;18385;51.572;6.578;2023-02-14T09:35:41;10.20;67.00
31677;DHT22;18385;51.572;6.578;2023-02-14T09:38:25;10.20;66.90
31677;DHT22;18385;51.572;6.578;2023-02-14T09:40:51;10.30;67.00
31677;DHT22;18385;51.572;6.578;2023-02-14T09:43:27;10.30;66.90
31677;DHT22;18385;51.572;6.578;2023-02-14T09:45:57;10.30;66.80
31677;DHT22;18385;51.572;6.578;2023-02-14T09:48:37;10.40;66.80
31677;DHT22;18385;51.572;6.578;2023-02-14T09:51:18;10.40;66.70
31677;DHT22;18385;51.572;6.578;2023-02-14T09:54:11;10.50;66.70
31677;DHT22;18385;51.572;6.578;2023-02-14T09:56:52;10.60;66.70
31677;DHT22;18385;51.572;6.578;2023-02-14T10:02:39;10.70;66.60
31677;DHT22;18385;51.572;6.578;2023-02-14T10:05:22;10.70;66.60
31677;DHT22;18385;51.572;6.578;2023-02-14T10:10:38;10.90;66.50
31677;DHT22;18385;51.572;6.578;2023-02-14T10:13:36;10.90;66.30
31677;DHT22;18385;51.572;6.578;2023-02-14T10:18:53;11.00;66.20
31677;DHT22;18385;51.572;6.578;2023-02-14T10:21:27;11.10;66.20
31677;DHT22;18385;51.572;6.578;2023-02-14T10:24:32;11.20;66.20
31677;DHT22;18385;51.572;6.578;2023-02-14T10:29:47;11.20;66.10
31677;DHT22;18385;51.572;6.578;2023-02-14T10:32:14;11.30;66.10
31677;DHT22;18385;51.572;6.578;2023-02-14T10:34:48;11.40;66.00
31677;DHT22;18385;51.572;6.578;2023-02-14T10:40:39;11.50;65.70
31677;DHT22;18385;51.572;6.578;2023-02-14T10:43:20;11.60;65.70
31677;DHT22;18385;51.572;6.578;2023-02-14T10:54:26;11.90;65.40
31677;DHT22;18385;51.572;6.578;2023-02-14T11:02:14;12.10;65.20
31677;DHT22;18385;51.572;6.578;2023-02-14T11:04:41;12.10;65.00
31677;DHT22;18385;51.572;6.578;2023-02-14T11:07:13;12.10;65.00
31677;DHT22;18385;51.572;6.578;2023-02-14T11:09:38;12.20;64.90
31677;DHT22;18385;51.572;6.578;2023-02-14T11:12:04;12.30;64.90
31677;DHT22;18385;51.572;6.578;2023-02-14T11:14:32;12.30;64.80
31677;DHT22;18385;51.572;6.578;2023-02-14T11:16:59;12.30;64.60
31677;DHT22;18385;51.572;6.578;2023-02-14T11:19:39;12.40;64.60
31677;DHT22;18385;51.572;6.578;2023-02-14T11:22:05;12.40;64.50
31677;DHT22;18385;51.572;6.578;2023-02-14T11:24:38;12.50;64.40
31677;DHT22;18385;51.572;6.578;2023-02-14T11:27:13;12.50;64.20
31677;DHT22;18385;51.572;6.578;2023-02-14T11:32:08;12.70;64.20
31677;DHT22;18385;51.572;6.578;2023-02-14T11:34:37;12.70;64.10
31677;DHT22;18385;51.572;6.578;2023-02-14T11:37:29;12.80;64.00
31677;DHT22;18385;51.572;6.578;2023-02-14T11:39:59;12.90;63.90
31677;DHT22;18385;51.572;6.578;2023-02-14T11:45:00;13.00;63.70
31677;DHT22;18385;51.572;6.578;2023-02-14T11:47:30;13.10;63.60
31677;DHT22;18385;51.572;6.578;2023-02-14T11:50:02;13.10;63.60
31677;DHT22;18385;51.572;6.578;2023-02-14T11:52:32;13.20;63.50
31677;DHT22;18385;51.572;6.578;2023-02-14T11:54:58;13.20;63.40
31677;DHT22;18385;51.572;6.578;2023-02-14T11:57:34;13.30;63.30
31677;DHT22;18385;51.572;6.578;2023-02-14T12:00:14;13.30;63.20
31677;DHT22;18385;51.572;6.578;2023-02-14T12:02:43;13.40;63.10
31677;DHT22;18385;51.572;6.578;2023-02-14T12:05:17;13.50;63.40
31677;DHT22;18385;51.572;6.578;2023-02-14T12:07:45;13.50;63.00
31677;DHT22;18385;51.572;6.578;2023-02-14T12:10:19;13.60;62.80
31677;DHT22;18385;51.572;6.578;2023-02-14T12:12:53;13.60;62.60
31677;DHT22;18385;51.572;6.578;2023-02-14T12:17:59;13.80;62.50
31677;DHT22;18385;51.572;6.578;2023-02-14T12:20:52;13.90;62.30
31677;DHT22;18385;51.572;6.578;2023-02-14T12:26:23;14.00;62.20
31677;DHT22;18385;51.572;6.578;2023-02-14T12:31:29;14.10;62.00
31677;DHT22;18385;51.572;6.578;2023-02-14T12:33:55;14.10;61.70
31677;DHT22;18385;51.572;6.578;2023-02-14T12:58:15;14.70;61.00
31677;DHT22;18385;51.572;6.578;2023-02-14T13:06:27;14.80;61.20
31677;DHT22;18385;51.572;6.578;2023-02-14T13:12:21;14.90;60.40
31677;DHT22;18385;51.572;6.578;2023-02-14T13:15:01;14.90;60.30
31677;DHT22;18385;51.572;6.578;2023-02-14T13:17:38;14.90;60.30
31677;DHT22;18385;51.572;6.578;2023-02-14T13:22:54;15.10;60.00
31677;DHT22;18385;51.572;6.578;2023-02-14T13:25:30;15.10;59.90
31677;DHT22;18385;51.572;6.578;2023-02-14T13:28:00;15.20;59.80
31677;DHT22;18385;51.572;6.578;2023-02-14T13:30:35;15.30;59.80
31677;DHT22;18385;51.572;6.578;2023-02-14T13:33:55;15.30;59.70
31677;DHT22;18385;51.572;6.578;2023-02-14T13:35:57;15.40;59.50
31677;DHT22;18385;51.572;6.578;2023-02-14T13:38:24;15.50;59.40
31677;DHT22;18385;51.572;6.578;2023-02-14T13:40:51;15.60;59.80
31677;DHT22;18385;51.572;6.578;2023-02-14T13:46:15;15.70;59.30
31677;DHT22;18385;51.572;6.578;2023-02-14T13:48:42;15.70;59.20
31677;DHT22;18385;51.572;6.578;2023-02-14T13:51:19;15.80;59.10
31677;DHT22;18385;51.572;6.578;2023-02-14T13:53:48;15.80;58.90
31677;DHT22;18385;51.572;6.578;2023-02-14T14:01:35;16.00;58.60
31677;DHT22;18385;51.572;6.578;2023-02-14T14:17:43;19.10;58.10
31677;DHT22;18385;51.572;6.578;2023-02-14T14:22:46;19.70;57.50
31677;DHT22;18385;51.572;6.578;2023-02-14T14:25:12;20.10;57.40
31677;DHT22;18385;51.572;6.578;2023-02-14T14:27:44;20.40;57.00
31677;DHT22;18385;51.572;6.578;2023-02-14T14:30:18;20.90;56.20
31677;DHT22;18385;51.572;6.578;2023-02-14T14:32:45;21.20;55.50
31677;DHT22;18385;51.572;6.578;2023-02-14T14:37:48;21.70;54.80
31677;DHT22;18385;51.572;6.578;2023-02-14T14:40:35;22.00;54.10
31677;DHT22;18385;51.572;6.578;2023-02-14T14:43:28;22.10;54.10
31677;DHT22;18385;51.572;6.578;2023-02-14T14:45:56;22.20;53.80
31677;DHT22;18385;51.572;6.578;2023-02-14T14:48:38;22.20;53.30
31677;DHT22;18385;51.572;6.578;2023-02-14T14:51:06;22.50;52.80
31677;DHT22;18385;51.572;6.578;2023-02-14T14:53:50;22.60;52.30
31677;DHT22;18385;51.572;6.578;2023-02-14T14:56:28;22.30;51.10
31677;DHT22;18385;51.572;6.578;2023-02-14T14:58:56;21.00;50.10
31677;DHT22;18385;51.572;6.578;2023-02-14T15:01:31;19.80;51.20
31677;DHT22;18385;51.572;6.578;2023-02-14T15:06:37;18.00;52.70
31677;DHT22;18385;51.572;6.578;2023-02-14T15:09:19;17.40;53.10
31677;DHT22;18385;51.572;6.578;2023-02-14T15:11:45;16.90;53.50
31677;DHT22;18385;51.572;6.578;2023-02-14T15:14:33;16.60;53.90
31677;DHT22;18385;51.572;6.578;2023-02-14T15:17:03;16.20;54.10
31677;DHT22;18385;51.572;6.578;2023-02-14T15:19:38;16.00;54.20
31677;DHT22;18385;51.572;6.578;2023-02-14T15:22:25;15.80;54.40
31677;DHT22;18385;51.572;6.578;2023-02-14T15:24:54;15.60;54.40
31677;DHT22;18385;51.572;6.578;2023-02-14T15:27:21;15.50;54.70
31677;DHT22;18385;51.572;6.578;2023-02-14T15:29:54;15.40;54.60
31677;DHT22;18385;51.572;6.578;2023-02-14T15:32:20;15.30;54.60
31677;DHT22;18385;51.572;6.578;2023-02-14T15:34:46;15.10;54.70
31677;DHT22;18385;51.572;6.578;2023-02-14T15:37:13;15.10;54.70
31677;DHT22;18385;51.572;6.578;2023-02-14T15:39:42;15.00;54.80
31677;DHT22;18385;51.572;6.578;2023-02-14T15:44:47;14.80;54.90
31677;DHT22;18385;51.572;6.578;2023-02-14T15:47:14;14.70;55.00
31677;DHT22;18385;51.572;6.578;2023-02-14T15:49:42;14.60;55.00
31677;DHT22;18385;51.572;6.578;2023-02-14T15:52:12;14.50;55.00
31677;DHT22;18385;51.572;6.578;2023-02-14T15:54:44;14.50;55.00
31677;DHT22;18385;51.572;6.578;2023-02-14T15:57:36;14.50;55.10
31677;DHT22;18385;51.572;6.578;2023-02-14T16:00:04;14.40;55.10
31677;DHT22;18385;51.572;6.578;2023-02-14T16:02:38;14.30;55.10
31677;DHT22;18385;51.572;6.578;2023-02-14T16:05:14;14.20;55.10
31677;DHT22;18385;51.572;6.578;2023-02-14T16:07:57;14.10;55.10
31677;DHT22;18385;51.572;6.578;2023-02-14T16:10:36;14.00;55.30
31677;DHT22;18385;51.572;6.578;2023-02-14T16:15:38;13.90;55.60
31677;DHT22;18385;51.572;6.578;2023-02-14T16:18:31;13.90;55.60
31677;DHT22;18385;51.572;6.578;2023-02-14T16:21:25;13.80;55.70
31677;DHT22;18385;51.572;6.578;2023-02-14T16:26:37;13.50;55.70
31677;DHT22;18385;51.572;6.578;2023-02-14T16:29:04;13.50;55.80
31677;DHT22;18385;51.572;6.578;2023-02-14T16:31:31;13.40;55.80
31677;DHT22;18385;51.572;6.578;2023-02-14T16:33:56;13.30;55.80
31677;DHT22;18385;51.572;6.578;2023-02-14T16:36:25;13.10;56.50
31677;DHT22;18385;51.572;6.578;2023-02-14T16:38:52;13.00;56.00
31677;DHT22;18385;51.572;6.578;2023-02-14T16:41:21;12.90;56.10
31677;DHT22;18385;51.572;6.578;2023-02-14T16:43:48;12.70;56.40
31677;DHT22;18385;51.572;6.578;2023-02-14T16:46:15;12.60;56.40
31677;DHT22;18385;51.572;6.578;2023-02-14T16:48:42;12.50;56.60
31677;DHT22;18385;51.572;6.578;2023-02-14T16:51:19;12.30;56.70
31677;DHT22;18385;51.572;6.578;2023-02-14T16:53:45;12.10;57.00
31677;DHT22;18385;51.572;6.578;2023-02-14T16:56:22;12.00;57.00
31677;DHT22;18385;51.572;6.578;2023-02-14T16:58:48;11.90;57.10
31677;DHT22;18385;51.572;6.578;2023-02-14T17:01:14;11.70;57.20
31677;DHT22;18385;51.572;6.578;2023-02-14T17:03:40;11.60;57.40
31677;DHT22;18385;51.572;6.578;2023-02-14T17:06:08;11.50;57.50
31677;DHT22;18385;51.572;6.578;2023-02-14T17:08:36;11.40;57.70
31677;DHT22;18385;51.572;6.578;2023-02-14T17:11:04;11.30;57.80
31677;DHT22;18385;51.572;6.578;2023-02-14T17:13:30;11.20;57.90
31677;DHT22;18385;51.572;6.578;2023-02-14T17:15:58;11.10;58.00
31677;DHT22;18385;51.572;6.578;2023-02-14T17:18:26;11.10;58.10
31677;DHT22;18385;51.572;6.578;2023-02-14T17:20:53;11.00;58.10
31677;DHT22;18385;51.572;6.578;2023-02-14T17:23:19;10.90;58.20
31677;DHT22;18385;51.572;6.578;2023-02-14T17:25:45;10.90;58.30
31677;DHT22;18385;51.572;6.578;2023-02-14T17:28:11;10.80;58.80
31677;DHT22;18385;51.572;6.578;2023-02-14T17:30:37;10.70;58.50
31677;DHT22;18385;51.572;6.578;2023-02-14T17:33:03;10.60;58.50
31677;DHT22;18385;51.572;6.578;2023-02-14T17:35:28;10.60;58.60
31677;DHT22;18385;51.572;6.578;2023-02-14T17:37:55;10.50;58.60
31677;DHT22;18385;51.572;6.578;2023-02-14T17:40:20;10.40;58.70
31677;DHT22;18385;51.572;6.578;2023-02-14T17:42:46;10.40;58.90
31677;DHT22;18385;51.572;6.578;2023-02-14T17:45:12;10.30;58.80
31677;DHT22;18385;51.572;6.578;2023-02-14T17:47:38;10.20;58.90
31677;DHT22;18385;51.572;6.578;2023-02-14T17:50:05;10.10;59.20
31677;DHT22;18385;51.572;6.578;2023-02-14T17:52:31;10.10;59.30
31677;DHT22;18385;51.572;6.578;2023-02-14T17:54:57;10.10;59.30
31677;DHT22;18385;51.572;6.578;2023-02-14T17:57:23;10.10;59.30
31677;DHT22;18385;51.572;6.578;2023-02-14T17:59:48;10.20;59.30
31677;DHT22;18385;51.572;6.578;2023-02-14T18:02:15;10.20;59.20
31677;DHT22;18385;51.572;6.578;2023-02-14T18:04:41;10.00;59.10
31677;DHT22;18385;51.572;6.578;2023-02-14T18:07:06;10.00;59.20
31677;DHT22;18385;51.572;6.578;2023-02-14T18:09:32;9.90;59.40
31677;DHT22;18385;51.572;6.578;2023-02-14T18:11:58;9.80;59.50
31677;DHT22;18385;51.572;6.578;2023-02-14T18:14:23;9.80;59.50
31677;DHT22;18385;51.572;6.578;2023-02-14T18:16:49;9.70;59.60
31677;DHT22;18385;51.572;6.578;2023-02-14T18:19:15;9.60;59.60
31677;DHT22;18385;51.572;6.578;2023-02-14T18:21:43;9.50;59.80
31677;DHT22;18385;51.572;6.578;2023-02-14T18:24:09;9.50;59.90
31677;DHT22;18385;51.572;6.578;2023-02-14T18:26:39;9.40;59.90